Time;durP1;ratioP1;P1;durP2;ratioP2;P2;SDS_P1;SDS_P2;PMS_P1;PMS_P2;Temp;Humidity;BMP_temperature;BMP_pressure;BME280_temperature;BME280_humidity;BME280_pressure;Samples;Min_cycle;Max_cycle;Signal;HPM_P1;HPM_P2
2022/01/04 00:00:55;;;;;;;4.43;1.60;;;;;;;5.99;100.00;99499.03;5043335;28;20055;-62
2022/01/04 00:03:22;;;;;;;7.68;1.60;;;;;;;6.00;100.00;99500.72;5040993;28;20155;-59
2022/01/04 00:05:50;;;;;;;7.82;1.42;;;;;;;5.98;100.00;99501.72;5046560;28;20059;-59
2022/01/04 00:08:17;;;;;;;6.50;2.00;;;;;;;6.07;100.00;99498.56;5036042;28;20407;-61
2022/01/04 00:10:44;;;;;;;7.07;2.00;;;;;;;6.08;100.00;99492.44;5042377;28;20160;-58
2022/01/04 00:13:23;;;;;;;4.72;2.00;;;;;;;6.01;100.00;99497.16;5046083;28;20057;-59
2022/01/04 00:15:55;;;;;;;9.05;1.55;;;;;;;6.05;100.00;99480.38;5044450;28;20128;-59
2022/01/04 00:18:23;;;;;;;4.35;1.73;;;;;;;6.06;100.00;99469.00;5038223;28;20048;-59
2022/01/04 00:20:50;;;;;;;7.63;2.05;;;;;;;6.01;100.00;99468.44;5045191;28;20083;-56
2022/01/04 00:23:18;;;;;;;5.43;2.20;;;;;;;6.05;100.00;99458.66;5044355;28;20053;-60
2022/01/04 00:25:45;;;;;;;4.90;1.52;;;;;;;6.01;100.00;99455.38;5041417;28;20041;-58
2022/01/04 00:28:12;;;;;;;7.45;2.10;;;;;;;5.93;100.00;99461.97;5040708;28;20063;-61
2022/01/04 00:30:40;;;;;;;6.13;1.77;;;;;;;6.02;100.00;99469.28;5042220;28;20157;-57
2022/01/04 00:33:10;;;;;;;4.57;1.80;;;;;;;5.98;100.00;99455.53;5048053;28;20056;-61
2022/01/04 00:35:37;;;;;;;3.88;1.63;;;;;;;5.91;100.00;99453.38;5042746;28;20131;-60
2022/01/04 00:38:05;;;;;;;5.75;1.90;;;;;;;5.95;100.00;99460.13;5045430;28;20088;-60
2022/01/04 00:40:32;;;;;;;5.38;1.70;;;;;;;5.91;100.00;99459.44;5033337;28;20051;-62
2022/01/04 00:42:59;;;;;;;9.43;1.58;;;;;;;5.86;100.00;99458.84;5045287;28;20051;-57
2022/01/04 00:45:31;;;;;;;4.60;1.40;;;;;;;5.85;100.00;99441.47;5038182;28;20103;-58
2022/01/04 00:50:28;;;;;;;5.38;1.90;;;;;;;5.85;100.00;99438.88;5035534;28;20136;-62
2022/01/04 00:52:56;;;;;;;6.28;1.88;;;;;;;5.89;100.00;99424.69;5044805;28;20048;-60
2022/01/04 00:55:23;;;;;;;7.43;1.55;;;;;;;5.86;100.00;99418.84;5024974;28;20104;-58
2022/01/04 00:57:50;;;;;;;6.75;1.70;;;;;;;5.96;100.00;99420.00;5045949;28;20046;-60
2022/01/04 01:00:18;;;;;;;7.55;1.70;;;;;;;5.91;100.00;99422.84;5046086;28;20057;-57
2022/01/04 01:02:45;;;;;;;6.15;1.40;;;;;;;5.84;100.00;99416.31;5047427;28;20061;-59
2022/01/04 01:05:13;;;;;;;7.93;1.30;;;;;;;5.84;100.00;99417.13;5038191;28;20413;-60
2022/01/04 01:07:40;;;;;;;3.30;1.90;;;;;;;5.79;100.00;99407.91;5042725;28;20063;-60
2022/01/04 01:10:33;;;;;;;7.22;1.90;;;;;;;5.79;100.00;99411.34;5044736;28;20053;-58
2022/01/04 01:13:00;;;;;;;5.78;2.00;;;;;;;5.85;100.00;99407.53;5052325;28;20068;-62
2022/01/04 01:15:27;;;;;;;5.22;1.63;;;;;;;5.80;100.00;99410.41;5045139;28;20049;-58
2022/01/04 01:17:54;;;;;;;4.72;1.50;;;;;;;5.84;100.00;99404.09;5046082;28;20068;-59
2022/01/04 01:20:21;;;;;;;6.45;1.42;;;;;;;5.81;100.00;99399.06;5039767;28;20071;-58
2022/01/04 01:22:49;;;;;;;5.75;1.35;;;;;;;5.88;100.00;99399.53;5047749;28;20045;-59
2022/01/04 01:25:17;;;;;;;6.80;1.70;;;;;;;5.79;100.00;99387.84;5044218;28;20061;-61
2022/01/04 01:27:44;;;;;;;4.35;1.60;;;;;;;5.86;100.00;99379.66;5044713;28;20489;-60
2022/01/04 01:30:11;;;;;;;3.13;1.27;;;;;;;5.90;100.00;99375.91;5042036;28;20056;-60
2022/01/04 01:32:38;;;;;;;3.97;0.85;;;;;;;5.78;100.00;99378.34;5044922;28;20080;-59
2022/01/04 01:35:06;;;;;;;2.42;1.20;;;;;;;5.82;100.00;99376.41;5042492;28;20768;-57
2022/01/04 01:37:34;;;;;;;5.57;1.40;;;;;;;5.79;100.00;99366.13;5051967;28;20049;-60
2022/01/04 01:40:03;;;;;;;6.18;1.60;;;;;;;5.79;100.00;99372.19;5044513;28;20658;-60
2022/01/04 01:42:30;;;;;;;6.60;1.95;;;;;;;5.80;100.00;99365.19;5055050;28;20509;-57
2022/01/04 01:44:57;;;;;;;3.58;1.35;;;;;;;5.78;100.00;99369.66;5044848;28;20063;-57
2022/01/04 01:47:25;;;;;;;7.97;1.35;;;;;;;5.79;100.00;99355.66;5055235;28;20421;-56
2022/01/04 01:49:52;;;;;;;5.05;1.88;;;;;;;5.81;100.00;99349.44;5046124;28;20057;-59
2022/01/04 01:52:20;;;;;;;6.43;1.15;;;;;;;5.76;100.00;99341.03;5048547;28;20055;-57
2022/01/04 01:54:47;;;;;;;7.35;1.33;;;;;;;5.77;100.00;99340.09;5023060;28;20045;-60
2022/01/04 01:57:14;;;;;;;7.53;1.48;;;;;;;5.75;100.00;99339.34;5047755;28;20053;-61
2022/01/04 01:59:41;;;;;;;5.68;1.27;;;;;;;5.74;100.00;99342.06;5037763;28;20143;-59
2022/01/04 02:02:08;;;;;;;5.90;1.38;;;;;;;5.76;100.00;99335.81;5047319;28;20045;-60
2022/01/04 02:04:36;;;;;;;2.55;0.98;;;;;;;5.75;100.00;99325.44;5035938;28;20055;-61
2022/01/04 02:07:03;;;;;;;5.57;1.38;;;;;;;5.72;100.00;99328.22;5043500;28;20525;-60
2022/01/04 02:09:31;;;;;;;2.88;1.30;;;;;;;5.69;100.00;99331.03;5041767;28;20076;-61
2022/01/04 02:11:59;;;;;;;3.05;1.30;;;;;;;5.70;100.00;99324.88;5043887;28;20057;-59
2022/01/04 02:14:26;;;;;;;5.30;1.75;;;;;;;5.70;100.00;99315.28;5020301;28;20147;-60
2022/01/04 02:16:53;;;;;;;7.50;1.40;;;;;;;5.70;100.00;99311.84;5025540;28;20053;-58
2022/01/04 02:19:21;;;;;;;6.60;1.63;;;;;;;5.70;100.00;99304.84;5036268;28;20076;-61
2022/01/04 02:21:48;;;;;;;3.80;1.00;;;;;;;5.64;100.00;99302.59;5041147;28;20049;-57
2022/01/04 02:24:15;;;;;;;1.60;0.95;;;;;;;5.62;100.00;99301.84;5039634;28;20641;-63
2022/01/04 02:26:51;;;;;;;4.78;1.67;;;;;;;5.64;100.00;99293.94;5045053;28;20490;-60
2022/01/04 02:29:19;;;;;;;2.05;1.10;;;;;;;5.62;100.00;99294.00;5017755;28;20065;-60
2022/01/04 02:31:46;;;;;;;6.60;1.48;;;;;;;5.64;100.00;99289.53;5047571;28;20539;-61
2022/01/04 02:34:13;;;;;;;3.83;1.23;;;;;;;5.65;100.00;99274.72;5046352;28;20044;-57
2022/01/04 02:36:41;;;;;;;4.80;1.40;;;;;;;5.65;100.00;99267.72;5047076;28;20059;-58
2022/01/04 02:39:08;;;;;;;10.18;1.98;;;;;;;5.68;100.00;99269.31;5046517;28;20053;-61
2022/01/04 02:41:35;;;;;;;5.28;1.67;;;;;;;5.61;100.00;99265.38;5043645;28;20049;-58
2022/01/04 02:44:03;;;;;;;5.47;1.58;;;;;;;5.64;100.00;99257.38;5044326;28;20453;-58
2022/01/04 02:46:30;;;;;;;6.75;1.00;;;;;;;5.61;100.00;99260.16;5054794;28;20056;-59
2022/01/04 02:48:58;;;;;;;2.35;1.13;;;;;;;5.70;100.00;99262.22;5050033;28;20137;-57
2022/01/04 02:51:25;;;;;;;4.28;1.45;;;;;;;5.67;100.00;99250.19;5045460;28;20148;-60
2022/01/04 02:53:52;;;;;;;2.38;1.30;;;;;;;5.67;100.00;99249.34;5047696;28;20067;-57
2022/01/04 02:56:19;;;;;;;7.07;1.63;;;;;;;5.64;100.00;99236.50;5047914;28;20078;-60
2022/01/04 02:58:46;;;;;;;4.22;1.67;;;;;;;5.65;100.00;99244.22;5042289;28;20149;-57
2022/01/04 03:01:14;;;;;;;4.93;1.40;;;;;;;5.65;100.00;99241.63;5050162;28;20057;-62
2022/01/04 03:03:41;;;;;;;3.90;1.20;;;;;;;5.63;100.00;99248.72;5045627;28;20049;-62
2022/01/04 03:06:13;;;;;;;3.75;1.20;;;;;;;5.71;100.00;99243.00;5041793;28;20044;-57
2022/01/04 03:08:40;;;;;;;3.83;0.90;;;;;;;5.76;100.00;99246.16;5040183;28;20458;-58
2022/01/04 03:11:08;;;;;;;5.20;1.30;;;;;;;5.77;100.00;99247.88;5045678;28;20143;-59
2022/01/04 03:13:35;;;;;;;4.25;1.02;;;;;;;5.71;100.00;99240.38;5043260;28;20410;-60
2022/01/04 03:16:03;;;;;;;5.80;1.27;;;;;;;5.70;100.00;99241.34;5045783;28;20053;-59
2022/01/04 03:18:30;;;;;;;5.05;1.25;;;;;;;5.66;100.00;99240.69;5052889;28;20049;-59
2022/01/04 03:20:57;;;;;;;3.28;1.23;;;;;;;5.70;100.00;99231.72;5048563;28;20513;-59
2022/01/04 03:23:24;;;;;;;6.13;1.40;;;;;;;5.75;100.00;99231.44;5045744;28;20048;-58
2022/01/04 03:25:51;;;;;;;1.95;1.15;;;;;;;5.77;100.00;99222.59;5021150;28;20165;-59
2022/01/04 03:28:20;;;;;;;2.92;1.27;;;;;;;5.77;100.00;99219.97;5043483;28;20513;-60
2022/01/04 03:30:48;;;;;;;3.22;1.23;;;;;;;5.78;100.00;99213.81;5043205;28;20049;-59
2022/01/04 03:33:15;;;;;;;5.30;1.20;;;;;;;5.82;100.00;99198.81;5027809;28;20092;-61
2022/01/04 03:35:42;;;;;;;1.83;1.20;;;;;;;5.81;100.00;99199.75;5045764;28;20059;-60
2022/01/04 03:38:09;;;;;;;5.00;1.45;;;;;;;5.77;100.00;99204.31;5044469;28;20140;-60
2022/01/04 03:40:37;;;;;;;5.63;1.63;;;;;;;5.81;100.00;99197.13;5042383;28;20087;-59
2022/01/04 03:43:04;;;;;;;1.75;0.93;;;;;;;5.77;100.00;99206.09;5043784;28;20216;-59
2022/01/04 03:45:31;;;;;;;3.35;1.23;;;;;;;5.77;100.00;99190.44;5051790;28;20059;-59
2022/01/04 03:47:58;;;;;;;5.60;1.90;;;;;;;5.80;100.00;99187.59;5055038;28;20400;-60
2022/01/04 03:50:25;;;;;;;3.45;1.40;;;;;;;5.83;100.00;99188.25;5037370;28;20045;-58
2022/01/04 03:52:53;;;;;;;3.20;1.20;;;;;;;5.77;100.00;99180.81;5040788;28;20450;-59
2022/01/04 03:55:20;;;;;;;5.07;1.30;;;;;;;5.84;100.00;99184.69;5041440;28;20057;-59
2022/01/04 03:57:48;;;;;;;2.10;1.10;;;;;;;5.86;100.00;99173.34;5045665;28;20416;-57
2022/01/04 04:00:15;;;;;;;5.10;1.42;;;;;;;5.88;100.00;99161.00;5042680;28;20469;-58
2022/01/04 04:02:42;;;;;;;3.40;1.08;;;;;;;5.84;100.00;99173.41;5050490;28;20132;-60
2022/01/04 04:05:10;;;;;;;5.75;1.40;;;;;;;5.84;100.00;99169.03;5041711;28;20152;-59
2022/01/04 04:07:37;;;;;;;2.67;1.00;;;;;;;5.86;100.00;99157.69;5046740;28;20132;-58
2022/01/04 04:10:05;;;;;;;3.13;1.17;;;;;;;5.91;100.00;99161.66;5041038;28;20055;-60
2022/01/04 04:12:32;;;;;;;3.65;1.17;;;;;;;5.82;100.00;99151.81;5046627;28;20055;-56
2022/01/04 04:15:03;;;;;;;4.68;1.33;;;;;;;5.79;100.00;99149.38;5040434;28;20049;-58
2022/01/04 04:17:31;;;;;;;3.97;1.50;;;;;;;5.81;100.00;99147.53;5042042;28;20125;-60
2022/01/04 04:19:58;;;;;;;7.05;1.80;;;;;;;5.76;100.00;99144.34;5043598;28;20055;-61
2022/01/04 04:22:25;;;;;;;4.47;1.42;;;;;;;5.75;100.00;99140.06;5049554;28;20072;-60
2022/01/04 04:24:52;;;;;;;6.72;2.10;;;;;;;5.83;100.00;99141.25;5045892;28;20045;-60
2022/01/04 04:27:19;;;;;;;2.50;1.30;;;;;;;5.80;100.00;99140.59;5042176;28;20053;-56
2022/01/04 04:29:46;;;;;;;4.45;1.63;;;;;;;5.79;100.00;99144.16;5040903;28;20049;-61
2022/01/04 04:32:13;;;;;;;3.70;1.38;;;;;;;5.76;100.00;99134.75;5043578;28;20056;-60
2022/01/04 04:34:41;;;;;;;7.43;1.73;;;;;;;5.79;100.00;99133.69;5026830;28;20053;-58
2022/01/04 04:37:08;;;;;;;5.22;1.77;;;;;;;5.73;100.00;99121.88;5043890;28;20051;-60
2022/01/04 04:39:35;;;;;;;3.40;2.05;;;;;;;5.74;100.00;99127.94;5025438;28;20132;-58
2022/01/04 04:42:03;;;;;;;3.63;1.40;;;;;;;5.77;100.00;99125.97;5043472;28;20052;-59
2022/01/04 04:44:30;;;;;;;4.63;1.55;;;;;;;5.78;100.00;99121.59;5042350;28;20048;-59
2022/01/04 04:46:57;;;;;;;4.00;1.63;;;;;;;5.76;100.00;99124.31;5045339;28;20041;-60
2022/01/04 04:49:24;;;;;;;6.75;1.55;;;;;;;5.73;100.00;99123.66;5043439;28;20108;-60
2022/01/04 04:51:52;;;;;;;7.20;1.95;;;;;;;5.76;100.00;99120.84;5035283;28;20107;-60
2022/01/04 04:54:19;;;;;;;4.53;1.98;;;;;;;5.72;100.00;99114.13;5039281;28;20537;-59
2022/01/04 04:56:46;;;;;;;4.63;1.67;;;;;;;5.71;100.00;99115.91;5041199;28;20163;-59
2022/01/04 04:59:13;;;;;;;5.75;1.83;;;;;;;5.74;100.00;99112.28;5040911;28;20085;-58
2022/01/04 05:01:40;;;;;;;6.38;1.70;;;;;;;5.70;100.00;99102.94;5048828;28;20055;-59
2022/01/04 05:04:07;;;;;;;4.30;1.85;;;;;;;5.72;100.00;99098.47;5043413;28;20053;-60
2022/01/04 05:06:35;;;;;;;9.85;1.80;;;;;;;5.67;100.00;99100.53;5045922;28;20057;-60
2022/01/04 05:09:02;;;;;;;5.00;1.80;;;;;;;5.68;100.00;99091.78;5043147;28;20135;-60
2022/01/04 05:11:29;;;;;;;4.65;1.70;;;;;;;5.71;100.00;99089.78;5046326;28;20052;-57
2022/01/04 05:13:56;;;;;;;5.43;2.00;;;;;;;5.72;100.00;99082.78;5047629;28;20052;-59
2022/01/04 05:16:24;;;;;;;4.57;1.80;;;;;;;5.66;100.00;99078.81;5044950;28;20098;-61
2022/01/04 05:18:51;;;;;;;7.22;2.45;;;;;;;5.63;100.00;99083.38;5044680;28;20098;-58
2022/01/04 05:21:18;;;;;;;4.90;1.85;;;;;;;5.59;100.00;99082.75;5047902;28;20065;-57
2022/01/04 05:23:45;;;;;;;5.38;2.13;;;;;;;5.57;100.00;99077.63;5046643;28;20067;-59
2022/01/04 05:26:12;;;;;;;6.22;2.22;;;;;;;5.57;100.00;99063.72;5041525;28;20111;-60
2022/01/04 05:28:42;;;;;;;4.80;2.28;;;;;;;5.60;100.00;99058.31;5040681;28;20513;-59
2022/01/04 05:31:09;;;;;;;6.22;2.30;;;;;;;5.65;100.00;99048.41;5044789;28;20069;-57
2022/01/04 05:33:36;;;;;;;10.07;2.42;;;;;;;5.63;100.00;99052.91;5045952;28;20057;-56
2022/01/04 05:36:03;;;;;;;5.22;2.47;;;;;;;5.61;100.00;99053.94;5045160;28;20063;-57
2022/01/04 05:38:31;;;;;;;3.88;2.28;;;;;;;5.59;100.00;99057.50;5036273;28;20128;-61
2022/01/04 05:40:58;;;;;;;6.80;2.30;;;;;;;5.63;100.00;99052.03;5043031;28;20819;-58
2022/01/04 05:43:25;;;;;;;6.07;2.50;;;;;;;5.66;100.00;99042.25;5027728;28;20045;-57
2022/01/04 05:45:52;;;;;;;7.90;2.45;;;;;;;5.64;100.00;99040.69;5043823;28;20049;-59
2022/01/04 05:48:21;;;;;;;7.45;2.50;;;;;;;5.66;100.00;99037.03;5029688;28;20442;-58
2022/01/04 05:50:48;;;;;;;5.50;2.55;;;;;;;5.66;100.00;99033.59;5038432;28;20057;-57
2022/01/04 05:53:16;;;;;;;7.00;2.72;;;;;;;5.65;100.00;99029.31;5039989;28;20059;-57
2022/01/04 05:55:43;;;;;;;5.97;2.78;;;;;;;5.65;100.00;99024.94;5042120;28;20075;-58
2022/01/04 05:58:10;;;;;;;4.75;2.65;;;;;;;5.67;100.00;99019.59;5023562;28;20053;-59
2022/01/04 06:00:37;;;;;;;9.25;3.17;;;;;;;5.67;100.00;99022.19;5041512;28;20056;-58
2022/01/04 06:03:04;;;;;;;4.78;2.47;;;;;;;5.65;100.00;99011.88;5041132;28;20458;-57
2022/01/04 06:05:31;;;;;;;7.57;3.13;;;;;;;5.62;100.00;99009.44;5039405;28;20144;-60
2022/01/04 06:07:59;;;;;;;6.00;2.63;;;;;;;5.64;100.00;99001.53;5048962;28;20056;-61
2022/01/04 06:10:26;;;;;;;6.72;2.92;;;;;;;5.63;100.00;98986.78;5036387;28;20458;-59
2022/01/04 06:15:23;;;;;;;7.88;3.25;;;;;;;5.59;100.00;98981.78;5041826;28;20053;-59
2022/01/04 06:17:50;;;;;;;7.82;3.58;;;;;;;5.63;100.00;98972.00;5044308;28;20063;-60
2022/01/04 06:20:21;;;;;;;5.60;3.08;;;;;;;5.66;100.00;98965.72;5041098;28;20048;-60
2022/01/04 06:22:49;;;;;;;5.88;3.13;;;;;;;5.67;100.00;98967.38;5061599;28;20056;-62
2022/01/04 06:25:20;;;;;;;8.23;3.17;;;;;;;5.66;100.00;98969.16;5024900;28;20139;-59
2022/01/04 06:27:49;;;;;;;7.90;3.40;;;;;;;5.70;100.00;98964.56;5041807;28;20148;-59
2022/01/04 06:30:18;;;;;;;8.70;3.55;;;;;;;5.63;100.00;98968.50;5042876;28;20076;-62
2022/01/04 06:32:50;;;;;;;8.43;3.97;;;;;;;5.63;100.00;98963.28;5043423;28;20068;-57
2022/01/04 06:35:17;;;;;;;7.13;3.90;;;;;;;5.64;100.00;98958.00;5043137;28;20053;-58
2022/01/04 06:37:49;;;;;;;8.85;4.80;;;;;;;5.76;100.00;98958.94;5044168;28;20056;-58
2022/01/04 06:40:16;;;;;;;11.98;4.22;;;;;;;5.79;100.00;98963.97;5040644;28;20049;-59
2022/01/04 06:42:43;;;;;;;8.25;4.53;;;;;;;5.70;100.00;98954.13;5048204;28;20053;-58
2022/01/04 06:45:11;;;;;;;8.98;4.68;;;;;;;5.63;100.00;98947.63;5042492;28;20135;-58
2022/01/04 06:47:38;;;;;;;12.25;4.95;;;;;;;5.69;100.00;98936.81;5046215;28;20056;-63
2022/01/04 06:50:06;;;;;;;9.88;5.50;;;;;;;5.67;100.00;98943.88;5051917;28;20048;-58
2022/01/04 06:52:33;;;;;;;11.93;5.88;;;;;;;5.63;100.00;98935.44;5043918;28;20045;-58
2022/01/04 06:55:00;;;;;;;10.05;5.05;;;;;;;5.66;100.00;98932.59;5043171;28;20045;-60
2022/01/04 06:57:28;;;;;;;12.55;5.80;;;;;;;5.78;100.00;98934.41;5052755;28;20063;-61
2022/01/04 06:59:55;;;;;;;14.88;5.95;;;;;;;5.79;100.00;98933.47;5048236;28;20576;-59
2022/01/04 07:02:22;;;;;;;10.30;6.03;;;;;;;5.79;100.00;98943.91;5052514;28;20163;-60
2022/01/04 07:04:49;;;;;;;10.25;5.28;;;;;;;5.84;100.00;98935.78;5044759;28;20129;-60
2022/01/04 07:07:16;;;;;;;9.63;5.78;;;;;;;5.79;100.00;98937.88;5043839;28;20723;-61
2022/01/04 07:09:43;;;;;;;12.88;6.43;;;;;;;5.82;100.00;98940.28;5043016;28;20053;-60
2022/01/04 07:12:11;;;;;;;10.25;5.53;;;;;;;5.86;100.00;98933.09;5043723;28;20052;-59
2022/01/04 07:14:38;;;;;;;8.88;5.55;;;;;;;5.91;100.00;98934.44;5049342;28;20050;-60
2022/01/04 07:17:05;;;;;;;8.57;5.50;;;;;;;5.96;100.00;98934.16;5049391;28;20052;-59
2022/01/04 07:19:32;;;;;;;9.43;5.50;;;;;;;5.98;100.00;98933.09;5044671;28;20049;-59
2022/01/04 07:22:00;;;;;;;11.48;5.30;;;;;;;6.07;100.00;98935.09;5042647;28;20098;-59
2022/01/04 07:24:27;;;;;;;8.80;5.35;;;;;;;6.02;100.00;98942.41;5047884;28;20563;-59
2022/01/04 07:26:54;;;;;;;11.32;5.88;;;;;;;6.02;100.00;98945.03;5053273;28;20045;-61
2022/01/04 07:29:22;;;;;;;9.20;5.03;;;;;;;6.09;100.00;98948.91;5049523;28;20059;-60
2022/01/04 07:31:49;;;;;;;8.88;4.93;;;;;;;6.07;100.00;98942.94;5057570;28;20063;-64
2022/01/04 07:34:16;;;;;;;9.70;4.50;;;;;;;6.15;100.00;98944.22;5041087;28;20049;-59
2022/01/04 07:36:43;;;;;;;10.65;4.90;;;;;;;6.18;100.00;98930.94;5031640;28;20044;-59
2022/01/04 07:39:10;;;;;;;8.93;5.15;;;;;;;6.21;100.00;98925.50;5042141;28;20052;-59
2022/01/04 07:41:37;;;;;;;10.75;5.40;;;;;;;6.25;100.00;98922.56;5042138;28;20095;-60
2022/01/04 07:44:04;;;;;;;7.22;5.07;;;;;;;6.24;100.00;98923.53;5037741;28;20045;-60
2022/01/04 07:46:32;;;;;;;5.93;4.22;;;;;;;6.23;100.00;98923.63;5034613;28;20049;-60
2022/01/04 07:48:59;;;;;;;9.80;4.82;;;;;;;6.33;100.00;98920.28;5042343;28;20059;-60
2022/01/04 07:51:27;;;;;;;10.27;3.83;;;;;;;6.32;100.00;98917.78;5040242;28;20053;-59
2022/01/04 07:53:54;;;;;;;5.85;4.07;;;;;;;6.30;100.00;98917.03;5044490;28;20380;-60
2022/01/04 07:56:21;;;;;;;8.30;4.07;;;;;;;6.31;100.00;98918.72;5044296;28;20502;-60
2022/01/04 07:58:49;;;;;;;8.75;4.25;;;;;;;6.36;100.00;98916.63;5044389;28;20059;-60
2022/01/04 08:01:16;;;;;;;7.82;4.30;;;;;;;6.42;100.00;98902.28;5046094;28;20470;-58
2022/01/04 08:03:44;;;;;;;7.72;4.25;;;;;;;6.41;100.00;98893.63;5045359;28;20525;-58
2022/01/04 08:06:11;;;;;;;8.38;4.30;;;;;;;6.46;100.00;98901.13;5045129;28;20088;-59
2022/01/04 08:08:38;;;;;;;6.32;4.15;;;;;;;6.45;100.00;98887.25;5038046;28;20059;-58
2022/01/04 08:11:05;;;;;;;9.50;4.50;;;;;;;6.50;100.00;98882.53;5044870;28;20118;-59
2022/01/04 08:13:32;;;;;;;7.93;4.13;;;;;;;6.48;100.00;98886.16;5045489;28;20115;-59
2022/01/04 08:15:59;;;;;;;7.55;3.92;;;;;;;6.56;100.00;98886.47;5038127;28;20868;-58
2022/01/04 08:18:27;;;;;;;7.50;3.97;;;;;;;6.65;100.00;98877.97;5045753;28;20131;-60
2022/01/04 08:20:57;;;;;;;6.78;3.42;;;;;;;6.65;100.00;98864.06;5045109;28;20096;-59
2022/01/04 08:23:25;;;;;;;9.25;3.90;;;;;;;6.66;100.00;98871.81;5040204;28;20076;-59
2022/01/04 08:25:52;;;;;;;8.25;3.35;;;;;;;6.67;100.00;98865.66;5036888;28;20044;-60
2022/01/04 08:28:19;;;;;;;5.45;3.45;;;;;;;6.72;100.00;98855.69;5038693;28;20485;-58
2022/01/04 08:30:46;;;;;;;5.25;3.33;;;;;;;6.77;100.00;98856.19;5047016;28;20080;-59
2022/01/04 08:33:14;;;;;;;7.07;3.50;;;;;;;6.76;100.00;98865.00;5047916;28;20061;-59
2022/01/04 08:35:41;;;;;;;8.98;3.60;;;;;;;6.84;100.00;98869.66;5047193;28;20123;-59
2022/01/04 08:38:08;;;;;;;5.22;3.17;;;;;;;6.81;100.00;98857.66;5048401;28;20044;-59
2022/01/04 08:40:36;;;;;;;4.40;2.78;;;;;;;6.84;100.00;98867.03;5052273;28;20072;-60
2022/01/04 08:43:05;;;;;;;9.48;3.58;;;;;;;6.82;100.00;98855.88;5047924;28;20052;-59
2022/01/04 08:45:33;;;;;;;6.60;3.38;;;;;;;6.87;100.00;98859.00;5045296;28;20053;-57
2022/01/04 08:48:01;;;;;;;6.57;3.45;;;;;;;6.83;100.00;98857.53;5042033;28;20056;-60
2022/01/04 08:50:28;;;;;;;5.00;3.35;;;;;;;6.82;100.00;98861.09;5038532;28;20764;-61
2022/01/04 08:52:56;;;;;;;5.43;3.60;;;;;;;6.83;100.00;98860.16;5042931;28;20156;-58
2022/01/04 08:55:23;;;;;;;6.95;3.08;;;;;;;6.81;100.00;98854.22;5041600;28;20144;-60
2022/01/04 08:57:51;;;;;;;4.45;3.35;;;;;;;6.88;100.00;98852.81;5040989;28;20057;-58
2022/01/04 09:00:18;;;;;;;11.65;4.22;;;;;;;6.88;100.00;98852.81;5037154;28;20052;-58
2022/01/04 09:02:45;;;;;;;5.03;3.13;;;;;;;6.92;100.00;98845.56;5039135;28;20057;-55
2022/01/04 09:05:14;;;;;;;5.65;3.05;;;;;;;6.94;100.00;98841.91;5038061;28;20484;-57
2022/01/04 09:07:41;;;;;;;4.57;2.75;;;;;;;6.98;100.00;98840.75;5040047;28;20120;-60
2022/01/04 09:10:08;;;;;;;6.60;3.28;;;;;;;6.96;100.00;98831.34;5041314;28;20061;-57
2022/01/04 09:21:11;;;;;;;8.73;2.90;;;;;;;6.91;100.00;98825.59;5033058;28;20140;-60
2022/01/04 09:23:38;;;;;;;4.93;2.65;;;;;;;6.96;100.00;98826.09;5042866;28;20059;-58
2022/01/04 09:26:05;;;;;;;4.90;2.90;;;;;;;6.95;100.00;98824.44;5045389;28;20076;-59
2022/01/04 09:28:32;;;;;;;5.85;3.10;;;;;;;6.95;100.00;98827.06;5040978;28;20057;-60
2022/01/04 09:30:59;;;;;;;8.63;3.50;;;;;;;6.92;100.00;98817.63;5044397;28;20739;-59
2022/01/04 09:33:27;;;;;;;5.10;2.78;;;;;;;6.93;100.00;98811.44;5028759;28;20091;-59
2022/01/04 09:36:14;;;;;;;4.70;2.50;;;;;;;6.92;100.00;98809.78;5040872;28;20057;-59
2022/01/04 09:38:41;;;;;;;6.28;2.53;;;;;;;6.93;100.00;98815.84;5042776;28;20052;-59
2022/01/04 09:41:08;;;;;;;8.63;2.80;;;;;;;6.96;100.00;98821.69;5043652;28;20143;-59
2022/01/04 09:43:38;;;;;;;5.38;2.40;;;;;;;6.98;100.00;98809.34;5042733;28;20053;-59
2022/01/04 09:46:07;;;;;;;7.70;2.85;;;;;;;6.99;100.00;98808.41;5040081;28;20420;-58
2022/01/04 09:48:35;;;;;;;4.93;2.80;;;;;;;7.06;100.00;98811.38;5043392;28;20128;-59
2022/01/04 09:51:02;;;;;;;5.82;2.45;;;;;;;7.02;100.00;98805.53;5043234;28;20052;-59
2022/01/04 09:53:29;;;;;;;4.05;2.55;;;;;;;6.94;100.00;98802.69;5016555;28;20046;-57
2022/01/04 09:55:57;;;;;;;4.45;2.50;;;;;;;6.91;100.00;98791.59;5043906;28;20891;-58
2022/01/04 09:58:25;;;;;;;6.68;2.60;;;;;;;6.94;100.00;98794.81;5050372;28;20061;-60
2022/01/04 10:00:52;;;;;;;4.57;2.65;;;;;;;6.90;100.00;98795.16;5040434;28;20063;-58
2022/01/04 10:03:29;;;;;;;4.47;2.67;;;;;;;6.83;100.00;98779.06;5040999;28;20049;-57
2022/01/04 10:06:07;;;;;;;5.82;2.92;;;;;;;6.89;100.00;98778.66;5039440;28;20053;-59
2022/01/04 10:09:10;;;;;;;3.40;2.60;;;;;;;6.87;100.00;98775.28;5047354;28;20057;-60
2022/01/04 10:11:42;;;;;;;4.10;2.80;;;;;;;6.89;100.00;98768.19;5044462;28;20053;-59
2022/01/04 10:14:26;;;;;;;5.28;2.53;;;;;;;6.85;100.00;98758.88;5046423;28;20060;-59
2022/01/04 10:17:00;;;;;;;6.00;2.63;;;;;;;6.85;100.00;98741.41;5037105;28;20444;-58
2022/01/04 10:19:35;;;;;;;4.07;2.13;;;;;;;6.94;100.00;98739.06;5048052;28;20115;-58
2022/01/04 10:22:26;;;;;;;5.55;2.20;;;;;;;6.88;100.00;98737.72;5042598;28;20404;-59
2022/01/04 10:25:03;;;;;;;6.10;2.75;;;;;;;6.92;100.00;98731.31;5038670;28;20535;-58
2022/01/04 10:27:40;;;;;;;10.77;3.17;;;;;;;6.96;100.00;98737.16;5043140;28;20331;-58
2022/01/04 10:30:20;;;;;;;4.00;2.30;;;;;;;7.11;100.00;98722.91;5043289;28;20052;-58
2022/01/04 10:33:06;;;;;;;6.13;2.50;;;;;;;7.23;100.00;98718.56;5038959;28;20054;-57
2022/01/04 10:35:45;;;;;;;4.68;2.70;;;;;;;7.30;100.00;98718.00;5039003;28;20080;-60
2022/01/04 10:38:26;;;;;;;6.28;3.00;;;;;;;7.33;100.00;98703.81;5047720;28;20045;-60
2022/01/04 10:41:23;;;;;;;6.38;2.20;;;;;;;7.25;100.00;98707.03;5028119;28;20083;-58
2022/01/04 10:44:02;;;;;;;7.35;2.53;;;;;;;7.18;100.00;98695.34;5040952;28;20053;-58
2022/01/04 10:46:44;;;;;;;4.97;2.72;;;;;;;7.13;100.00;98700.09;5044953;28;20080;-57
2022/01/04 10:49:23;;;;;;;2.97;2.45;;;;;;;7.05;100.00;98703.28;5040467;28;20132;-57
2022/01/04 10:52:20;;;;;;;5.47;2.40;;;;;;;7.03;100.00;98702.59;5050354;28;20521;-59
2022/01/04 10:54:47;;;;;;;3.65;2.22;;;;;;;7.09;100.00;98696.06;5043616;28;20056;-59
2022/01/04 10:57:14;;;;;;;4.53;2.40;;;;;;;7.08;100.00;98705.69;5030330;28;20061;-55
2022/01/04 10:59:41;;;;;;;4.28;2.63;;;;;;;6.98;100.00;98704.72;5041383;28;20045;-59
2022/01/04 11:02:09;;;;;;;4.65;2.35;;;;;;;6.87;100.00;98717.75;5044617;28;20717;-58
2022/01/04 11:04:39;;;;;;;5.88;2.90;;;;;;;6.79;100.00;98717.47;5044345;28;20412;-58
2022/01/04 11:07:06;;;;;;;3.17;2.20;;;;;;;6.76;100.00;98708.09;5036008;28;20055;-59
2022/01/04 11:09:34;;;;;;;7.70;2.83;;;;;;;6.80;100.00;98706.09;5047904;28;20059;-58
2022/01/04 11:12:01;;;;;;;7.30;2.60;;;;;;;6.73;100.00;98710.09;5044059;28;20045;-59
2022/01/04 11:14:28;;;;;;;5.78;2.05;;;;;;;6.73;100.00;98699.63;5021475;28;20128;-60
2022/01/04 11:16:55;;;;;;;2.63;2.05;;;;;;;6.78;100.00;98703.56;5044638;28;20092;-58
2022/01/04 11:19:23;;;;;;;3.20;2.10;;;;;;;6.78;100.00;98700.13;5043162;28;20059;-59
2022/01/04 11:21:51;;;;;;;6.95;2.03;;;;;;;6.71;100.00;98707.59;5045204;28;20159;-58
2022/01/04 11:24:19;;;;;;;2.45;1.70;;;;;;;6.72;100.00;98697.97;5039039;28;20132;-59
2022/01/04 11:26:48;;;;;;;3.75;1.67;;;;;;;6.66;100.00;98693.16;5043483;28;20045;-57
2022/01/04 11:29:15;;;;;;;4.10;2.25;;;;;;;6.66;100.00;98695.78;5045771;28;20061;-59
2022/01/04 11:32:16;;;;;;;5.65;2.17;;;;;;;6.65;100.00;98686.28;5034656;28;20732;-59
2022/01/04 11:35:20;;;;;;;2.72;1.70;;;;;;;6.76;100.00;98668.03;5022019;28;20592;-58
2022/01/04 11:37:56;;;;;;;3.60;1.90;;;;;;;6.72;100.00;98656.13;5028868;28;20041;-61
2022/01/04 11:40:25;;;;;;;5.53;2.00;;;;;;;6.78;100.00;98642.59;5044221;28;20064;-60
2022/01/04 11:42:54;;;;;;;4.82;1.85;;;;;;;6.70;100.00;98648.38;5048877;28;20509;-59
2022/01/04 11:45:39;;;;;;;2.97;1.70;;;;;;;6.75;100.00;98635.78;5049609;28;20397;-58
2022/01/04 11:48:46;;;;;;;5.07;2.50;;;;;;;6.80;100.00;98638.91;5044294;28;20109;-58
2022/01/04 11:51:35;;;;;;;6.80;2.15;;;;;;;6.74;100.00;98647.19;4949675;28;20570;-58
2022/01/04 11:54:14;;;;;;;4.80;2.28;;;;;;;6.69;100.00;98624.97;4957235;28;20578;-58